createdAt,value
2022-09-15T00:01:00.870Z,100.00
2022-09-15T00:03:28.630Z,100.00
2022-09-15T00:05:55.662Z,100.00
2022-09-15T00:08:22.882Z,100.00
2022-09-15T00:10:52.541Z,100.00
2022-09-15T00:13:19.976Z,100.00
2022-09-15T00:15:47.078Z,100.00
2022-09-15T00:18:16.691Z,100.00
2022-09-15T00:20:44.241Z,100.00
2022-09-15T00:23:12.939Z,100.00
2022-09-15T00:25:45.820Z,100.00
2022-09-15T00:28:13.934Z,100.00
2022-09-15T00:30:49.957Z,100.00
2022-09-15T00:33:17.415Z,100.00
2022-09-15T00:35:47.305Z,100.00
2022-09-15T00:38:15.008Z,100.00
2022-09-15T00:40:50.224Z,100.00
2022-09-15T00:43:17.489Z,100.00
2022-09-15T00:45:44.977Z,100.00
2022-09-15T00:48:21.577Z,100.00
2022-09-15T00:50:52.460Z,100.00
2022-09-15T00:53:20.346Z,100.00
2022-09-15T00:55:49.083Z,100.00
2022-09-15T00:58:22.967Z,100.00
2022-09-15T01:00:55.615Z,100.00
2022-09-15T01:03:24.248Z,100.00
2022-09-15T01:05:56.809Z,100.00
2022-09-15T01:08:31.919Z,100.00
2022-09-15T01:10:58.956Z,100.00
2022-09-15T01:13:25.617Z,100.00
2022-09-15T01:16:13.708Z,100.00
2022-09-15T01:18:56.447Z,100.00
2022-09-15T01:21:42.776Z,100.00
2022-09-15T01:24:12.386Z,100.00
2022-09-15T01:26:59.634Z,100.00
2022-09-15T01:29:32.566Z,100.00
2022-09-15T01:32:24.510Z,100.00
2022-09-15T01:35:39.277Z,100.00
2022-09-15T01:38:15.975Z,100.00
2022-09-15T01:40:52.060Z,100.00
2022-09-15T01:43:20.787Z,100.00
2022-09-15T01:45:48.423Z,100.00
2022-09-15T01:48:16.505Z,100.00
2022-09-15T01:50:48.561Z,100.00
2022-09-15T01:53:18.256Z,100.00
2022-09-15T01:55:51.834Z,100.00
2022-09-15T01:58:18.456Z,100.00
2022-09-15T02:00:50.156Z,100.00
2022-09-15T02:03:35.161Z,100.00
2022-09-15T02:06:07.220Z,100.00
2022-09-15T02:09:01.394Z,100.00
2022-09-15T02:11:30.362Z,100.00
2022-09-15T02:14:00.664Z,100.00
2022-09-15T02:16:31.118Z,100.00
2022-09-15T02:19:03.957Z,100.00
2022-09-15T02:21:35.777Z,100.00
2022-09-15T02:24:10.889Z,100.00
2022-09-15T02:26:37.655Z,100.00
2022-09-15T02:29:07.611Z,100.00
2022-09-15T02:31:35.443Z,100.00
2022-09-15T02:34:10.680Z,100.00
2022-09-15T02:36:37.248Z,99.44
2022-09-15T02:39:08.731Z,100.00
2022-09-15T02:41:37.075Z,100.00
2022-09-15T02:44:04.036Z,100.00
2022-09-15T02:46:30.725Z,100.00
2022-09-15T02:48:57.324Z,99.15
2022-09-15T02:51:23.998Z,100.00
2022-09-15T02:53:50.918Z,100.00
2022-09-15T02:56:18.168Z,99.70
2022-09-15T02:58:45.103Z,100.00
2022-09-15T03:01:15.692Z,100.00
2022-09-15T03:03:46.218Z,100.00
2022-09-15T03:06:16.747Z,100.00
2022-09-15T03:08:53.449Z,100.00
2022-09-15T03:11:22.167Z,100.00
2022-09-15T03:13:52.620Z,100.00
2022-09-15T03:16:19.572Z,99.95
2022-09-15T03:18:46.873Z,98.39
2022-09-15T03:21:14.757Z,99.85
2022-09-15T03:23:42.389Z,99.61
2022-09-15T03:26:10.384Z,99.51
2022-09-15T03:28:38.280Z,100.00
2022-09-15T03:31:06.489Z,100.00
2022-09-15T03:33:33.548Z,99.86
2022-09-15T03:36:00.579Z,99.27
2022-09-15T03:38:27.417Z,99.15
2022-09-15T03:41:01.605Z,98.49
2022-09-15T03:43:30.152Z,98.16
2022-09-15T03:45:57.771Z,98.77
2022-09-15T03:48:25.032Z,98.84
2022-09-15T03:50:52.468Z,98.40
2022-09-15T03:53:20.209Z,96.54
2022-09-15T03:55:48.875Z,96.33
2022-09-15T03:58:16.839Z,95.64
2022-09-15T04:00:43.984Z,96.70
2022-09-15T04:03:10.664Z,97.19
2022-09-15T04:05:37.501Z,97.12
2022-09-15T04:08:04.753Z,96.25
2022-09-15T04:10:31.677Z,97.03
2022-09-15T04:12:58.385Z,97.22
2022-09-15T04:15:25.070Z,97.74
2022-09-15T04:17:52.132Z,97.83
2022-09-15T04:20:18.936Z,99.07
2022-09-15T04:22:45.659Z,100.00
2022-09-15T04:25:12.330Z,100.00
2022-09-15T04:27:39.095Z,98.78
2022-09-15T04:30:07.442Z,100.00
2022-09-15T04:32:35.663Z,100.00
2022-09-15T04:35:03.704Z,100.00
2022-09-15T04:37:31.212Z,99.45
2022-09-15T04:39:58.017Z,98.62
2022-09-15T04:42:25.081Z,99.18
2022-09-15T04:44:51.760Z,98.43
2022-09-15T04:47:19.418Z,98.91
2022-09-15T04:49:46.246Z,99.28
2022-09-15T04:52:12.893Z,98.71
2022-09-15T04:54:39.566Z,98.89
2022-09-15T04:57:06.153Z,98.26
2022-09-15T04:59:33.148Z,98.03
2022-09-15T05:01:59.828Z,98.58
2022-09-15T05:04:26.500Z,98.16
2022-09-15T05:06:53.109Z,97.85
2022-09-15T05:09:19.873Z,97.50
2022-09-15T05:11:46.543Z,98.51
2022-09-15T05:14:13.534Z,98.55
2022-09-15T05:16:40.515Z,99.12
2022-09-15T05:19:07.261Z,98.36
2022-09-15T05:21:33.954Z,98.39
2022-09-15T05:24:00.875Z,98.63
2022-09-15T05:26:29.045Z,98.92
2022-09-15T05:28:56.785Z,98.75
2022-09-15T05:31:26.878Z,98.45
2022-09-15T05:33:54.295Z,98.61
2022-09-15T05:36:25.034Z,99.59
2022-09-15T05:38:53.516Z,98.36
2022-09-15T05:41:23.930Z,98.85
2022-09-15T05:43:51.218Z,98.15
2022-09-15T05:46:19.467Z,98.00
2022-09-15T05:48:46.520Z,98.16
2022-09-15T05:51:13.530Z,97.73
2022-09-15T05:53:40.327Z,98.23
2022-09-15T05:56:10.282Z,97.36
2022-09-15T05:58:39.107Z,97.76
2022-09-15T06:01:08.129Z,97.76
2022-09-15T06:03:35.975Z,97.83
2022-09-15T06:06:04.481Z,95.95
2022-09-15T06:08:33.735Z,96.85
2022-09-15T06:11:06.288Z,97.33
2022-09-15T06:13:33.269Z,95.69
2022-09-15T06:16:07.989Z,94.15
2022-09-15T06:18:37.167Z,94.41
2022-09-15T06:21:05.779Z,94.38
2022-09-15T06:23:32.512Z,93.98
2022-09-15T06:26:07.685Z,95.07
2022-09-15T06:28:34.287Z,94.56
2022-09-15T06:31:01.281Z,95.00
2022-09-15T06:33:27.976Z,94.62
2022-09-15T06:35:54.688Z,94.80
2022-09-15T06:38:21.407Z,94.30
2022-09-15T06:40:56.632Z,94.96
2022-09-15T06:43:23.581Z,94.81
2022-09-15T06:45:51.035Z,94.09
2022-09-15T06:48:25.073Z,93.88
2022-09-15T06:50:56.058Z,94.69
2022-09-15T06:53:22.837Z,94.36
2022-09-15T06:55:50.193Z,94.30
2022-09-15T06:58:17.468Z,93.01
2022-09-15T07:00:44.301Z,93.45
2022-09-15T07:03:11.186Z,95.69
2022-09-15T07:05:40.928Z,94.49
2022-09-15T07:08:07.797Z,93.51
2022-09-15T07:10:34.516Z,93.41
2022-09-15T07:13:01.392Z,93.08
2022-09-15T07:15:28.125Z,92.70
2022-09-15T07:17:54.872Z,92.08
2022-09-15T07:20:21.633Z,91.00
2022-09-15T07:22:48.509Z,90.42
2022-09-15T07:25:15.230Z,92.85
2022-09-15T07:27:42.144Z,92.83
2022-09-15T07:30:09.606Z,91.30
2022-09-15T07:32:36.245Z,91.75
2022-09-15T07:35:03.274Z,90.66
2022-09-15T07:37:34.342Z,91.53
2022-09-15T07:40:04.195Z,91.60
2022-09-15T07:42:35.436Z,91.74
2022-09-15T07:45:04.626Z,91.12
2022-09-15T07:47:31.317Z,90.68
2022-09-15T07:49:58.098Z,89.63
2022-09-15T07:52:24.804Z,90.71
2022-09-15T07:54:51.443Z,90.94
2022-09-15T07:57:18.188Z,89.21
2022-09-15T07:59:45.034Z,88.38
2022-09-15T08:02:16.882Z,88.30
2022-09-15T08:04:44.428Z,90.55
2022-09-15T08:07:11.621Z,89.12
2022-09-15T08:09:39.273Z,87.78
2022-09-15T08:12:07.228Z,86.69
2022-09-15T08:14:34.666Z,85.17
2022-09-15T08:17:03.026Z,85.08
2022-09-15T08:19:34.457Z,85.68
2022-09-15T08:22:01.989Z,84.13
2022-09-15T08:24:29.115Z,83.56
2022-09-15T08:26:55.937Z,81.90
2022-09-15T08:29:23.020Z,81.68
2022-09-15T08:31:49.875Z,81.25
2022-09-15T08:34:16.912Z,80.61
2022-09-15T08:36:43.752Z,81.37
2022-09-15T08:39:10.639Z,81.64
2022-09-15T08:41:43.544Z,80.27
2022-09-15T08:44:28.876Z,80.97
2022-09-15T08:47:04.085Z,79.20
2022-09-15T08:49:50.595Z,78.65
2022-09-15T08:52:30.806Z,78.57
2022-09-15T08:55:07.160Z,78.57
2022-09-15T08:57:34.025Z,77.02
2022-09-15T09:00:01.089Z,76.91
2022-09-15T09:02:49.274Z,75.54
2022-09-15T09:05:29.558Z,74.67
2022-09-15T09:08:15.098Z,73.57
2022-09-15T09:10:59.130Z,72.23
2022-09-15T09:13:44.444Z,71.72
2022-09-15T09:16:14.264Z,70.88
2022-09-15T09:19:35.972Z,70.53
2022-09-15T09:22:10.452Z,67.74
2022-09-15T09:24:39.268Z,68.69
2022-09-15T09:27:11.624Z,72.45
2022-09-15T09:29:42.881Z,70.15
2022-09-15T09:32:21.686Z,71.48
2022-09-15T09:34:59.114Z,70.48
2022-09-15T09:37:25.931Z,71.06
2022-09-15T09:39:52.672Z,68.68
2022-09-15T09:42:19.973Z,67.48
2022-09-15T09:44:47.081Z,67.02
2022-09-15T09:47:14.079Z,64.34
2022-09-15T09:49:47.433Z,64.83
2022-09-15T09:52:35.997Z,64.49
2022-09-15T09:55:23.429Z,64.93
2022-09-15T09:57:50.556Z,66.63
2022-09-15T10:00:38.433Z,67.40
2022-09-15T10:03:32.929Z,68.44
2022-09-15T10:06:03.013Z,67.57
2022-09-15T10:08:30.022Z,66.79
2022-09-15T10:11:03.704Z,65.34
2022-09-15T10:13:30.452Z,65.89
2022-09-15T10:15:59.779Z,65.78
2022-09-15T10:18:38.315Z,65.15
2022-09-15T10:21:06.380Z,64.89
2022-09-15T10:23:34.215Z,64.26
2022-09-15T10:26:34.461Z,65.01
2022-09-15T10:29:10.522Z,65.24
2022-09-15T10:31:37.414Z,66.78
2022-09-15T10:34:27.208Z,66.74
2022-09-15T10:37:47.823Z,64.50
2022-09-15T10:40:23.465Z,64.36
2022-09-15T10:42:58.275Z,64.08
2022-09-15T10:45:26.810Z,63.52
2022-09-15T10:48:07.259Z,61.84
2022-09-15T10:51:16.100Z,64.64
2022-09-15T10:54:31.356Z,64.44
2022-09-15T11:00:12.051Z,65.64
2022-09-15T11:03:07.640Z,66.11
2022-09-15T11:05:48.995Z,66.20
2022-09-15T11:08:33.262Z,66.56
2022-09-15T11:11:17.905Z,65.94
2022-09-15T11:14:07.700Z,65.92
2022-09-15T11:16:55.547Z,66.31
2022-09-15T11:19:49.932Z,67.98
2022-09-15T11:22:17.712Z,67.72
2022-09-15T11:24:48.539Z,67.11
2022-09-15T11:27:34.869Z,68.53
2022-09-15T11:30:24.843Z,68.91
2022-09-15T11:33:14.265Z,68.42
2022-09-15T11:35:59.483Z,69.94
2022-09-15T11:38:42.797Z,72.68
2022-09-15T11:41:28.261Z,72.94
2022-09-15T11:43:54.803Z,73.91
2022-09-15T11:46:28.317Z,73.04
2022-09-15T11:49:05.155Z,72.72
2022-09-15T11:51:36.164Z,72.82
2022-09-15T11:54:11.049Z,74.10
2022-09-15T11:56:42.754Z,73.13
2022-09-15T11:59:17.544Z,72.18
2022-09-15T12:02:07.748Z,74.16
2022-09-15T12:04:54.567Z,75.54
2022-09-15T12:07:23.888Z,75.65
2022-09-15T12:09:50.797Z,75.28
2022-09-15T12:12:22.548Z,74.85
2022-09-15T12:14:50.655Z,73.34
2022-09-15T12:17:26.132Z,72.62
2022-09-15T12:20:03.930Z,72.47
2022-09-15T12:22:56.845Z,72.28
2022-09-15T12:25:32.614Z,73.50
2022-09-15T12:28:34.220Z,74.26
2022-09-15T12:31:31.488Z,73.43
2022-09-15T12:34:05.231Z,71.31
2022-09-15T12:36:45.729Z,71.95
2022-09-15T12:39:31.487Z,72.19
2022-09-15T12:42:05.311Z,71.33
2022-09-15T12:44:52.511Z,70.99
2022-09-15T12:47:43.277Z,71.67
2022-09-15T12:50:16.187Z,71.23
2022-09-15T12:52:50.081Z,69.89
2022-09-15T12:55:27.237Z,69.24
2022-09-15T12:58:18.559Z,71.07
2022-09-15T13:01:13.985Z,70.56
2022-09-15T13:06:10.466Z,71.51
2022-09-15T13:08:39.219Z,71.11
2022-09-15T13:11:12.489Z,70.72
2022-09-15T13:13:51.631Z,69.65
2022-09-15T13:17:20.022Z,68.75
2022-09-15T13:19:49.033Z,67.48
2022-09-15T13:22:36.647Z,68.49
2022-09-15T13:25:18.266Z,67.95
2022-09-15T13:27:50.824Z,68.97
2022-09-15T13:30:45.360Z,68.09
2022-09-15T13:33:25.785Z,68.21
2022-09-15T13:35:55.571Z,67.14
2022-09-15T13:38:27.624Z,67.85
2022-09-15T13:41:31.128Z,67.17
2022-09-15T13:44:35.434Z,68.21
2022-09-15T13:47:08.112Z,67.66
2022-09-15T13:50:09.098Z,66.97
2022-09-15T13:53:02.933Z,67.81
2022-09-15T13:55:35.049Z,67.53
2022-09-15T14:00:55.763Z,67.58
2022-09-15T14:03:31.878Z,68.03
2022-09-15T14:06:03.330Z,67.14
2022-09-15T14:08:32.764Z,65.42
2022-09-15T14:11:03.808Z,66.28
2022-09-15T14:13:30.800Z,66.92
2022-09-15T14:16:02.413Z,67.71
2022-09-15T14:18:32.794Z,67.55
2022-09-15T14:21:02.139Z,67.55
2022-09-15T14:23:29.726Z,65.43
2022-09-15T14:26:00.520Z,65.68
2022-09-15T14:28:32.353Z,63.94
2022-09-15T14:31:00.415Z,63.54
2022-09-15T14:33:38.231Z,63.18
2022-09-15T14:36:18.872Z,62.31
2022-09-15T14:39:02.866Z,58.76
2022-09-15T14:41:32.481Z,59.22
2022-09-15T14:43:59.326Z,60.10
2022-09-15T14:46:36.405Z,60.26
2022-09-15T14:49:14.004Z,60.25
2022-09-15T14:51:42.342Z,60.71
2022-09-15T14:54:33.047Z,60.05
2022-09-15T14:57:01.505Z,59.00
2022-09-15T14:59:38.881Z,58.75
2022-09-15T15:02:26.751Z,58.98
2022-09-15T15:05:05.527Z,59.57
2022-09-15T15:07:34.720Z,60.26
2022-09-15T15:10:26.794Z,59.82
2022-09-15T15:12:56.381Z,61.34
2022-09-15T15:15:23.203Z,62.34
2022-09-15T15:17:54.451Z,63.09
2022-09-15T15:20:27.028Z,64.03
2022-09-15T15:23:15.603Z,63.92
2022-09-15T15:25:45.459Z,64.20
2022-09-15T15:28:42.329Z,63.80
2022-09-15T15:31:18.593Z,64.41
2022-09-15T15:33:47.116Z,64.55
2022-09-15T15:36:14.011Z,63.36
2022-09-15T15:38:47.215Z,63.67
2022-09-15T15:41:32.812Z,65.58
2022-09-15T15:44:15.902Z,65.94
2022-09-15T15:46:45.643Z,66.44
2022-09-15T15:49:13.190Z,66.08
2022-09-15T15:51:40.838Z,66.92
2022-09-15T15:54:07.609Z,67.15
2022-09-15T15:56:37.874Z,66.90
2022-09-15T15:59:05.414Z,68.26
2022-09-15T16:01:32.905Z,68.77
2022-09-15T16:04:06.020Z,68.83
2022-09-15T16:06:35.992Z,69.42
2022-09-15T16:09:03.667Z,69.50
2022-09-15T16:11:30.433Z,70.13
2022-09-15T16:13:57.735Z,70.72
2022-09-15T16:16:29.616Z,70.28
2022-09-15T16:18:56.653Z,71.27
2022-09-15T16:21:37.154Z,70.97
2022-09-15T16:24:05.357Z,70.93
2022-09-15T16:26:59.528Z,70.76
2022-09-15T16:29:30.028Z,69.83
2022-09-15T16:31:58.487Z,69.84
2022-09-15T16:34:25.796Z,69.49
2022-09-15T16:36:52.595Z,69.17
2022-09-15T16:39:44.116Z,66.34
2022-09-15T16:42:14.910Z,63.43
2022-09-15T16:44:41.996Z,64.27
2022-09-15T16:48:05.452Z,61.33
2022-09-15T16:50:33.878Z,58.56
2022-09-15T16:53:03.858Z,56.94
2022-09-15T16:55:37.239Z,56.36
2022-09-15T16:58:05.125Z,56.67
2022-09-15T17:00:34.057Z,57.11
2022-09-15T17:03:01.427Z,57.53
2022-09-15T17:05:38.509Z,58.54
2022-09-15T17:08:06.842Z,58.24
2022-09-15T17:10:33.757Z,58.90
2022-09-15T17:13:04.249Z,58.36
2022-09-15T17:15:34.106Z,58.33
2022-09-15T17:18:01.025Z,58.73
2022-09-15T17:20:33.748Z,59.36
2022-09-15T17:23:17.861Z,60.25
2022-09-15T17:25:51.348Z,60.22
2022-09-15T17:28:23.772Z,60.11
2022-09-15T17:30:52.193Z,60.64
2022-09-15T17:33:19.997Z,61.21
2022-09-15T17:35:57.319Z,61.39
2022-09-15T17:38:25.330Z,61.20
2022-09-15T17:40:59.581Z,61.84
2022-09-15T17:43:29.600Z,61.62
2022-09-15T17:46:00.572Z,61.92
2022-09-15T17:48:27.298Z,61.97
2022-09-15T17:50:54.169Z,61.87
2022-09-15T17:53:31.508Z,62.17
2022-09-15T17:56:00.877Z,62.89
2022-09-15T17:58:31.966Z,62.63
2022-09-15T18:00:59.051Z,62.98
2022-09-15T18:03:34.870Z,63.14
2022-09-15T18:06:05.315Z,62.86
2022-09-15T18:08:36.472Z,63.18
2022-09-15T18:11:05.163Z,64.21
2022-09-15T18:13:32.055Z,64.54
2022-09-15T18:16:05.079Z,64.30
2022-09-15T18:18:32.187Z,64.81
2022-09-15T18:21:01.212Z,64.42
2022-09-15T18:23:29.764Z,65.18
2022-09-15T18:25:59.742Z,65.08
2022-09-15T18:28:31.713Z,65.84
2022-09-15T18:31:03.179Z,65.46
2022-09-15T18:33:40.079Z,65.48
2022-09-15T18:36:07.861Z,65.43
2022-09-15T18:38:36.686Z,65.53
2022-09-15T18:41:07.297Z,65.44
2022-09-15T18:43:34.332Z,65.21
2022-09-15T18:46:01.565Z,65.72
2022-09-15T18:48:29.267Z,65.90
2022-09-15T18:50:56.397Z,66.00
2022-09-15T18:53:25.308Z,65.81
2022-09-15T18:55:52.258Z,66.07
2022-09-15T18:58:22.806Z,66.37
2022-09-15T19:00:53.418Z,66.26
2022-09-15T19:03:20.323Z,66.32
2022-09-15T19:05:47.217Z,66.15
2022-09-15T19:08:15.373Z,67.12
2022-09-15T19:10:44.311Z,67.16
2022-09-15T19:13:14.422Z,67.42
2022-09-15T19:15:50.312Z,67.23
2022-09-15T19:18:19.861Z,66.92
2022-09-15T19:20:46.662Z,67.38
2022-09-15T19:23:15.298Z,68.42
2022-09-15T19:25:43.046Z,68.51
2022-09-15T19:28:09.956Z,68.24
2022-09-15T19:30:37.227Z,68.56
2022-09-15T19:33:05.091Z,69.09
2022-09-15T19:35:31.864Z,69.33
2022-09-15T19:37:58.504Z,69.83
2022-09-15T19:40:25.439Z,69.73
2022-09-15T19:42:52.147Z,70.25
2022-09-15T19:45:18.973Z,70.42
2022-09-15T19:47:45.704Z,71.10
2022-09-15T19:50:12.602Z,71.09
2022-09-15T19:52:39.709Z,71.74
2022-09-15T19:55:08.080Z,72.33
2022-09-15T19:57:36.367Z,72.52
2022-09-15T20:00:05.201Z,72.59
2022-09-15T20:02:31.920Z,72.76
2022-09-15T20:04:58.672Z,72.88
2022-09-15T20:07:25.688Z,73.26
2022-09-15T20:09:53.454Z,73.43
2022-09-15T20:14:47.953Z,73.92
2022-09-15T20:17:14.630Z,74.26
2022-09-15T20:19:41.310Z,74.83
2022-09-15T20:22:08.213Z,74.33
2022-09-15T20:24:34.823Z,74.15
2022-09-15T20:27:01.428Z,74.03
2022-09-15T20:29:28.041Z,74.07
2022-09-15T20:31:54.766Z,74.23
2022-09-15T20:34:21.459Z,73.43
2022-09-15T20:36:48.169Z,74.31
2022-09-15T20:39:15.919Z,73.70
2022-09-15T20:41:46.166Z,73.64
2022-09-15T20:44:13.605Z,74.35
2022-09-15T20:46:40.600Z,73.99
2022-09-15T20:49:07.464Z,74.26
2022-09-15T20:51:43.792Z,74.39
2022-09-15T20:54:13.607Z,74.75
2022-09-15T20:56:40.770Z,75.02
2022-09-15T20:59:10.654Z,75.35
2022-09-15T21:01:39.068Z,74.86
2022-09-15T21:04:07.842Z,76.04
2022-09-15T21:06:35.329Z,75.97
2022-09-15T21:09:02.170Z,75.67
2022-09-15T21:11:29.576Z,75.19
2022-09-15T21:13:56.976Z,75.27
2022-09-15T21:16:26.318Z,75.28
2022-09-15T21:18:53.297Z,75.01
2022-09-15T21:21:22.339Z,75.10
2022-09-15T21:23:57.016Z,75.85
2022-09-15T21:26:25.387Z,75.32
2022-09-15T21:28:53.670Z,76.36
2022-09-15T21:31:23.685Z,75.77
2022-09-15T21:33:51.939Z,75.73
2022-09-15T21:36:45.959Z,75.79
2022-09-15T21:39:12.743Z,76.12
2022-09-15T21:41:39.571Z,76.14
2022-09-15T21:44:07.195Z,75.91
2022-09-15T21:46:33.859Z,76.17
2022-09-15T21:49:00.556Z,76.00
2022-09-15T21:51:28.855Z,76.40
2022-09-15T21:53:57.940Z,76.64
2022-09-15T21:56:34.306Z,76.32
2022-09-15T21:59:02.606Z,76.50
2022-09-15T22:01:32.619Z,76.65
2022-09-15T22:04:01.364Z,76.84
2022-09-15T22:06:31.722Z,77.17
2022-09-15T22:09:03.576Z,77.48
2022-09-15T22:11:30.500Z,77.85
2022-09-15T22:13:57.439Z,78.37
2022-09-15T22:16:25.367Z,77.53
2022-09-15T22:18:52.393Z,78.54
2022-09-15T22:21:21.233Z,79.35
2022-09-15T22:23:48.868Z,78.91
2022-09-15T22:26:20.767Z,79.88
2022-09-15T22:28:49.252Z,79.82
2022-09-15T22:31:19.090Z,79.29
2022-09-15T22:33:47.139Z,78.98
2022-09-15T22:36:16.315Z,78.57
2022-09-15T22:38:43.500Z,78.53
2022-09-15T22:41:12.235Z,77.95
2022-09-15T22:43:40.757Z,77.61
2022-09-15T22:46:07.893Z,77.61
2022-09-15T22:48:37.488Z,78.36
2022-09-15T22:51:06.505Z,77.47
2022-09-15T22:53:33.470Z,78.09
2022-09-15T22:56:17.518Z,77.87
2022-09-15T22:58:44.395Z,78.42
2022-09-15T23:01:14.422Z,79.32
2022-09-15T23:03:41.703Z,79.66
2022-09-15T23:06:08.522Z,79.41
2022-09-15T23:08:37.209Z,79.51
2022-09-15T23:11:06.878Z,79.10
2022-09-15T23:13:34.056Z,79.19
2022-09-15T23:16:01.208Z,79.85
2022-09-15T23:18:28.029Z,79.58
2022-09-15T23:20:57.456Z,79.54
2022-09-15T23:23:24.615Z,79.28
2022-09-15T23:25:51.425Z,79.05
2022-09-15T23:28:18.441Z,79.28
2022-09-15T23:30:45.260Z,79.52
2022-09-15T23:33:12.191Z,79.94
2022-09-15T23:35:38.898Z,79.42
2022-09-15T23:38:05.722Z,79.64
2022-09-15T23:40:33.128Z,79.31
2022-09-15T23:42:59.767Z,79.84
2022-09-15T23:45:26.429Z,79.40
2022-09-15T23:47:53.213Z,79.51
2022-09-15T23:50:19.853Z,79.17
2022-09-15T23:52:46.493Z,79.28
2022-09-15T23:55:13.517Z,79.01
2022-09-15T23:57:40.237Z,79.06
